createdAt,value
2022-10-11T00:01:18.218Z,7.95
2022-10-11T00:03:46.833Z,5.62
2022-10-11T00:06:15.369Z,5.87
2022-10-11T00:08:43.915Z,5.95
2022-10-11T00:11:12.512Z,3.08
2022-10-11T00:13:41.095Z,4.67
2022-10-11T00:16:11.765Z,3.33
2022-10-11T00:18:40.823Z,6.62
2022-10-11T00:21:12.199Z,4.40
2022-10-11T00:23:41.007Z,3.65
2022-10-11T00:26:11.212Z,10.15
2022-10-11T00:28:40.528Z,6.05
2022-10-11T00:31:15.772Z,6.12
2022-10-11T00:33:44.480Z,6.83
2022-10-11T00:36:17.338Z,5.67
2022-10-11T00:38:46.122Z,3.95
2022-10-11T00:41:15.416Z,4.03
2022-10-11T00:43:44.591Z,9.50
2022-10-11T00:46:25.129Z,6.22
2022-10-11T00:49:16.940Z,5.62
2022-10-11T00:51:48.618Z,3.98
2022-10-11T00:54:20.304Z,4.78
2022-10-11T00:56:51.785Z,5.45
2022-10-11T00:59:23.408Z,5.12
2022-10-11T01:01:52.347Z,8.23
2022-10-11T01:04:21.388Z,6.00
2022-10-11T01:06:51.380Z,7.87
2022-10-11T01:09:20.891Z,5.10
2022-10-11T01:11:53.138Z,5.53
2022-10-11T01:14:51.327Z,10.25
2022-10-11T01:17:41.335Z,6.55
2022-10-11T01:20:45.986Z,7.90
2022-10-11T01:23:45.371Z,5.72
2022-10-11T01:26:33.766Z,9.53
2022-10-11T01:29:14.329Z,7.33
2022-10-11T01:31:56.301Z,5.53
2022-10-11T01:35:03.826Z,10.05
2022-10-11T01:37:35.775Z,11.83
2022-10-11T01:40:09.963Z,5.83
2022-10-11T01:42:41.027Z,4.72
2022-10-11T01:45:12.515Z,6.08
2022-10-11T01:47:42.500Z,7.10
2022-10-11T01:50:36.759Z,4.55
2022-10-11T01:53:26.232Z,8.13
2022-10-11T01:56:15.733Z,7.65
2022-10-11T01:58:50.296Z,6.28
2022-10-11T02:01:56.146Z,7.15
2022-10-11T02:04:33.323Z,7.40
2022-10-11T02:07:29.759Z,7.15
2022-10-11T02:10:10.326Z,6.92
2022-10-11T02:12:44.704Z,9.10
2022-10-11T02:15:16.727Z,6.30
2022-10-11T02:17:48.420Z,6.62
2022-10-11T02:20:22.495Z,8.75
2022-10-11T02:22:54.320Z,7.30
2022-10-11T02:25:43.461Z,9.07
2022-10-11T02:28:15.181Z,7.80
2022-10-11T02:30:45.148Z,9.93
2022-10-11T02:33:16.615Z,10.95
2022-10-11T02:35:48.790Z,5.33
2022-10-11T02:38:23.181Z,5.17
2022-10-11T02:40:57.720Z,6.65
2022-10-11T02:43:41.652Z,7.47
2022-10-11T02:46:11.207Z,5.12
2022-10-11T02:48:39.844Z,3.52
2022-10-11T02:51:11.450Z,6.12
2022-10-11T02:53:39.989Z,7.47
2022-10-11T02:56:08.887Z,5.80
2022-10-11T02:58:37.606Z,6.53
2022-10-11T03:01:06.399Z,6.12
2022-10-11T03:03:34.944Z,8.08
2022-10-11T03:06:05.296Z,7.00
2022-10-11T03:08:34.535Z,5.65
2022-10-11T03:11:03.051Z,8.58
2022-10-11T03:13:31.555Z,5.75
2022-10-11T03:16:03.585Z,7.55
2022-10-11T03:18:30.895Z,5.12
2022-10-11T03:20:59.512Z,9.35
2022-10-11T03:23:28.130Z,2.85
2022-10-11T03:25:56.872Z,4.85
2022-10-11T03:28:25.464Z,3.67
2022-10-11T03:30:53.937Z,6.58
2022-10-11T03:33:22.500Z,2.83
2022-10-11T03:35:51.180Z,5.00
2022-10-11T03:38:22.163Z,3.50
2022-10-11T03:41:10.133Z,3.17
2022-10-11T03:43:38.781Z,4.00
2022-10-11T03:46:08.176Z,2.77
2022-10-11T03:48:37.173Z,3.65
2022-10-11T03:51:05.878Z,2.50
2022-10-11T03:53:34.391Z,2.45
2022-10-11T03:56:08.120Z,3.30
2022-10-11T03:58:33.633Z,4.62
2022-10-11T04:01:02.189Z,7.95
2022-10-11T04:03:30.776Z,8.45
2022-10-11T04:05:59.490Z,7.95
2022-10-11T04:08:28.084Z,7.00
2022-10-11T04:10:56.672Z,10.38
2022-10-11T04:13:25.220Z,9.25
2022-10-11T04:15:53.878Z,10.00
2022-10-11T04:18:22.422Z,11.70
2022-10-11T04:20:51.049Z,8.90
2022-10-11T04:23:19.649Z,7.35
2022-10-11T04:25:48.353Z,6.17
2022-10-11T04:28:16.917Z,3.67
2022-10-11T04:30:45.612Z,3.08
2022-10-11T04:33:14.201Z,4.45
2022-10-11T04:35:42.751Z,3.17
2022-10-11T04:38:11.360Z,6.05
2022-10-11T04:40:39.936Z,4.33
2022-10-11T04:43:08.891Z,6.97
2022-10-11T04:45:37.532Z,4.67
2022-10-11T04:48:06.336Z,3.83
2022-10-11T04:50:35.251Z,5.12
2022-10-11T04:53:03.793Z,4.67
2022-10-11T04:55:32.395Z,9.25
2022-10-11T04:58:02.106Z,3.83
2022-10-11T05:00:32.243Z,4.10
2022-10-11T05:03:01.306Z,4.05
2022-10-11T05:05:29.892Z,4.10
2022-10-11T05:07:58.448Z,5.87
2022-10-11T05:10:27.037Z,3.95
2022-10-11T05:12:55.717Z,3.52
2022-10-11T05:15:24.360Z,4.85
2022-10-11T05:17:52.952Z,6.10
2022-10-11T05:20:21.579Z,4.72
2022-10-11T05:22:50.163Z,6.55
2022-10-11T05:25:18.821Z,6.95
2022-10-11T05:27:47.369Z,3.75
2022-10-11T05:30:16.105Z,6.17
2022-10-11T05:32:44.642Z,7.90
2022-10-11T05:35:15.544Z,6.95
2022-10-11T05:37:44.981Z,5.17
2022-10-11T05:40:13.890Z,5.58
2022-10-11T05:42:42.612Z,5.47
2022-10-11T05:45:11.320Z,7.62
2022-10-11T05:47:39.908Z,6.45
2022-10-11T05:50:08.879Z,4.40
2022-10-11T05:52:37.455Z,7.28
2022-10-11T05:55:06.676Z,3.85
2022-10-11T05:57:35.357Z,7.15
2022-10-11T06:00:04.817Z,5.67
2022-10-11T06:02:34.978Z,5.17
2022-10-11T06:05:03.628Z,3.17
2022-10-11T06:07:32.573Z,10.15
2022-10-11T06:10:01.100Z,29.07
2022-10-11T06:12:31.082Z,3.85
2022-10-11T06:14:59.764Z,9.00
2022-10-11T06:17:29.029Z,3.33
2022-10-11T06:20:12.791Z,10.00
2022-10-11T06:22:41.522Z,18.00
2022-10-11T06:25:10.203Z,4.78
2022-10-11T06:27:38.727Z,4.25
2022-10-11T06:30:07.963Z,3.52
2022-10-11T06:32:36.513Z,5.00
2022-10-11T06:35:06.053Z,4.28
2022-10-11T06:37:34.608Z,7.87
2022-10-11T06:40:03.503Z,4.17
2022-10-11T06:42:32.033Z,5.40
2022-10-11T06:45:00.792Z,4.65
2022-10-11T06:47:29.360Z,5.00
2022-10-11T06:49:58.015Z,8.98
2022-10-11T06:52:26.604Z,4.35
2022-10-11T06:54:54.843Z,9.98
2022-10-11T06:57:23.409Z,4.55
2022-10-11T06:59:51.954Z,6.65
2022-10-11T07:02:20.526Z,9.73
2022-10-11T07:04:49.046Z,5.75
2022-10-11T07:07:17.717Z,4.30
2022-10-11T07:09:46.346Z,6.28
2022-10-11T07:12:16.182Z,4.78
2022-10-11T07:14:44.921Z,7.12
2022-10-11T07:17:13.443Z,4.92
2022-10-11T07:19:42.011Z,8.08
2022-10-11T07:22:10.634Z,6.25
2022-10-11T07:24:39.184Z,6.45
2022-10-11T07:27:07.777Z,7.15
2022-10-11T07:29:36.331Z,9.13
2022-10-11T07:32:05.016Z,12.05
2022-10-11T07:34:34.192Z,8.50
2022-10-11T07:37:02.804Z,10.53
2022-10-11T07:39:31.730Z,15.63
2022-10-11T07:42:00.441Z,12.93
2022-10-11T07:44:29.059Z,14.20
2022-10-11T07:46:57.627Z,11.63
2022-10-11T07:49:26.268Z,17.67
2022-10-11T07:51:54.782Z,12.00
2022-10-11T07:54:23.454Z,8.53
2022-10-11T07:56:52.394Z,7.20
2022-10-11T07:59:20.930Z,9.80
2022-10-11T08:01:49.618Z,9.30
2022-10-11T08:04:18.185Z,7.92
2022-10-11T08:06:50.991Z,13.18
2022-10-11T08:09:16.960Z,13.38
2022-10-11T08:11:45.543Z,11.10
2022-10-11T08:14:14.080Z,15.70
2022-10-11T08:16:42.698Z,14.28
2022-10-11T08:19:12.186Z,17.48
2022-10-11T08:21:40.904Z,16.75
2022-10-11T08:24:09.666Z,18.67
2022-10-11T08:26:38.235Z,30.52
2022-10-11T08:29:06.942Z,18.52
2022-10-11T08:31:36.142Z,20.12
2022-10-11T08:34:04.707Z,27.48
2022-10-11T08:36:33.578Z,25.45
2022-10-11T08:39:02.280Z,29.05
2022-10-11T08:41:57.548Z,24.35
2022-10-11T08:45:09.373Z,22.95
2022-10-11T08:47:22.802Z,20.12
2022-10-11T08:49:52.269Z,30.17
2022-10-11T08:52:23.722Z,25.68
2022-10-11T08:54:58.076Z,31.25
2022-10-11T08:57:29.541Z,32.95
2022-10-11T09:00:01.207Z,36.98
2022-10-11T09:03:07.482Z,32.85
2022-10-11T09:05:20.633Z,32.15
2022-10-11T09:08:27.247Z,33.63
2022-10-11T09:11:01.806Z,28.55
2022-10-11T09:13:43.687Z,27.13
2022-10-11T09:16:44.307Z,33.92
2022-10-11T09:19:24.557Z,29.92
2022-10-11T09:22:11.040Z,39.23
2022-10-11T09:24:51.230Z,33.08
2022-10-11T09:28:01.185Z,28.87
2022-10-11T09:30:19.325Z,38.60
2022-10-11T09:32:50.719Z,50.05
2022-10-11T09:35:21.890Z,38.83
2022-10-11T09:37:53.528Z,42.13
2022-10-11T09:40:53.717Z,34.13
2022-10-11T09:43:22.526Z,38.35
2022-10-11T09:45:51.164Z,44.98
2022-10-11T09:48:22.782Z,41.48
2022-10-11T09:50:52.689Z,45.05
2022-10-11T09:53:21.942Z,43.02
2022-10-11T09:55:56.513Z,42.17
2022-10-11T09:58:55.841Z,40.88
2022-10-11T10:01:26.706Z,40.17
2022-10-11T10:04:07.608Z,37.80
2022-10-11T10:06:36.772Z,46.58
2022-10-11T10:09:24.125Z,48.00
2022-10-11T10:11:54.251Z,46.10
2022-10-11T10:14:25.920Z,43.73
2022-10-11T10:17:06.778Z,48.52
2022-10-11T10:19:43.746Z,48.15
2022-10-11T10:22:23.774Z,53.98
2022-10-11T10:24:54.664Z,56.00
2022-10-11T10:27:26.235Z,55.83
2022-10-11T10:30:06.188Z,60.75
2022-10-11T10:33:05.414Z,55.85
2022-10-11T10:35:36.877Z,56.13
2022-10-11T10:38:08.600Z,60.08
2022-10-11T10:40:45.560Z,53.23
2022-10-11T10:43:16.600Z,68.02
2022-10-11T10:45:54.266Z,53.28
2022-10-11T10:48:28.539Z,61.45
2022-10-11T10:51:00.548Z,65.45
2022-10-11T10:53:32.289Z,66.22
2022-10-11T10:56:13.101Z,76.97
2022-10-11T10:59:01.305Z,63.35
2022-10-11T11:01:32.439Z,64.15
2022-10-11T11:04:10.267Z,74.12
2022-10-11T11:06:47.694Z,63.68
2022-10-11T11:09:24.638Z,58.68
2022-10-11T11:12:09.232Z,52.15
2022-10-11T11:14:56.215Z,62.17
2022-10-11T11:17:27.848Z,71.72
2022-10-11T11:20:08.628Z,64.25
2022-10-11T11:22:46.211Z,65.15
2022-10-11T11:25:18.646Z,67.00
2022-10-11T11:28:05.030Z,61.37
2022-10-11T11:30:34.766Z,56.30
2022-10-11T11:33:04.539Z,56.20
2022-10-11T11:35:34.379Z,54.80
2022-10-11T11:38:06.517Z,50.95
2022-10-11T11:40:35.672Z,49.93
2022-10-11T11:43:05.553Z,49.80
2022-10-11T13:41:18.344Z,8.65
2022-10-11T13:43:46.813Z,4.70
2022-10-11T13:46:19.574Z,9.40
2022-10-11T13:51:16.939Z,5.60
2022-10-11T13:53:58.957Z,7.78
2022-10-11T13:56:28.168Z,8.73
2022-10-11T13:58:56.908Z,8.75
2022-10-11T14:01:31.168Z,4.83
2022-10-11T14:04:01.111Z,8.43
2022-10-11T14:06:43.430Z,11.45
2022-10-11T14:09:19.372Z,8.50
2022-10-11T14:11:48.175Z,12.73
2022-10-11T14:14:49.488Z,8.60
2022-10-11T14:17:19.398Z,8.60
2022-10-11T14:19:48.184Z,10.80
2022-10-11T14:22:17.536Z,10.10
2022-10-11T14:24:48.811Z,10.40
2022-10-11T14:27:21.273Z,9.60
2022-10-11T14:30:20.150Z,11.18
2022-10-11T14:32:20.998Z,8.05
2022-10-11T14:34:49.996Z,11.15
2022-10-11T14:37:19.048Z,7.12
2022-10-11T14:39:50.771Z,9.83
2022-10-11T14:42:19.332Z,9.73
2022-10-11T14:44:47.550Z,7.22
2022-10-11T14:47:17.152Z,12.28
2022-10-11T14:49:45.438Z,10.05
2022-10-11T18:01:55.161Z,12.93
2022-10-11T18:04:25.766Z,9.85
2022-10-11T18:06:55.065Z,10.43
2022-10-11T18:09:24.748Z,10.78
2022-10-11T18:11:53.509Z,13.40
2022-10-11T18:14:22.057Z,9.28
2022-10-11T18:16:50.948Z,11.15
2022-10-11T18:19:19.481Z,9.33
2022-10-11T18:21:48.061Z,9.60
2022-10-11T18:24:17.681Z,10.32
2022-10-11T18:26:46.844Z,12.05
2022-10-11T18:29:15.893Z,9.23
2022-10-11T18:31:44.454Z,9.55
2022-10-11T18:34:15.721Z,8.05
2022-10-11T18:36:44.332Z,13.43
2022-10-11T18:39:15.293Z,9.20
2022-10-11T18:41:44.605Z,11.83
2022-10-11T18:44:15.771Z,9.20
2022-10-11T18:46:45.455Z,12.45
2022-10-11T18:49:14.580Z,10.38
2022-10-11T18:51:43.746Z,7.45
2022-10-11T18:54:16.676Z,9.48
2022-10-11T18:56:43.333Z,9.95
2022-10-11T18:59:13.463Z,11.30
2022-10-11T19:01:44.558Z,12.10
2022-10-11T19:04:16.948Z,10.50
2022-10-11T19:06:48.203Z,11.22
2022-10-11T19:09:21.870Z,10.13
2022-10-11T19:11:53.260Z,10.85
2022-10-11T19:14:25.831Z,10.28
2022-10-11T19:16:54.481Z,10.65
2022-10-11T19:19:26.443Z,10.80
2022-10-11T19:21:55.383Z,16.15
2022-10-11T19:24:26.450Z,9.93
2022-10-11T19:27:01.210Z,12.40
2022-10-11T19:29:28.680Z,12.93
2022-10-11T19:32:00.143Z,13.13
2022-10-11T19:34:31.407Z,11.80
2022-10-11T19:37:01.155Z,12.03
2022-10-11T19:39:30.210Z,9.45
2022-10-11T19:42:00.196Z,9.23
2022-10-11T19:44:28.786Z,10.58
2022-10-11T19:47:01.428Z,11.63
2022-10-11T19:49:27.661Z,10.53
2022-10-11T19:51:56.380Z,12.30
2022-10-11T19:54:25.072Z,9.93
2022-10-11T19:56:53.816Z,11.93
2022-10-11T19:59:22.496Z,10.85
2022-10-11T20:01:53.263Z,10.13
2022-10-11T20:06:52.691Z,13.90
2022-10-11T20:09:29.993Z,10.88
2022-10-11T20:11:51.484Z,13.47
2022-10-11T20:14:20.433Z,28.15
2022-10-11T20:16:51.463Z,15.72
2022-10-11T20:19:22.057Z,11.95
2022-10-11T20:21:52.025Z,14.75
2022-10-11T20:24:20.622Z,14.50
2022-10-11T20:26:49.184Z,13.28
2022-10-11T20:29:17.742Z,13.28
2022-10-11T20:31:47.863Z,11.22
2022-10-11T21:26:40.588Z,8.00
2022-10-11T21:29:09.159Z,11.28
2022-10-11T21:31:37.712Z,12.73
2022-10-11T21:34:07.333Z,7.85
2022-10-11T21:36:36.141Z,11.57
2022-10-11T21:39:05.134Z,12.40
2022-10-11T21:41:33.939Z,11.03
2022-10-11T21:44:02.548Z,10.82
2022-10-11T21:47:01.328Z,10.78
2022-10-11T21:49:03.110Z,7.90
2022-10-11T21:51:32.905Z,13.90
2022-10-11T21:54:01.550Z,6.87
2022-10-11T21:56:30.827Z,8.25
2022-10-11T21:58:59.387Z,8.28
2022-10-11T22:01:28.081Z,8.73
2022-10-11T22:03:56.733Z,7.72
2022-10-11T22:06:25.314Z,8.35
2022-10-11T22:08:53.884Z,12.05
2022-10-11T22:11:22.534Z,8.98
2022-10-11T22:13:51.082Z,11.53
2022-10-11T22:16:20.128Z,10.23
2022-10-11T22:18:48.891Z,10.58
2022-10-11T22:21:20.348Z,6.10
2022-10-11T22:23:51.510Z,7.90
2022-10-11T22:26:22.903Z,12.07
2022-10-11T22:28:51.785Z,10.50
2022-10-11T22:31:21.924Z,9.90
2022-10-11T22:33:52.175Z,7.92
2022-10-11T22:36:21.087Z,9.18
2022-10-11T22:38:49.629Z,9.15
2022-10-11T22:41:18.253Z,8.90
2022-10-11T22:43:46.788Z,10.00
2022-10-11T22:46:15.500Z,12.45
2022-10-11T22:48:44.056Z,9.90
2022-10-11T22:51:12.590Z,9.48
2022-10-11T22:53:41.135Z,8.50
2022-10-11T22:56:10.586Z,12.60
2022-10-11T22:58:39.224Z,13.90
2022-10-11T23:01:12.961Z,14.33
2022-10-11T23:03:41.571Z,12.00
2022-10-11T23:06:11.570Z,9.90
2022-10-11T23:08:40.209Z,9.13
2022-10-11T23:11:09.342Z,12.47
2022-10-11T23:13:37.928Z,13.75
2022-10-11T23:16:08.795Z,12.45
2022-10-11T23:18:37.673Z,13.05
2022-10-11T23:21:07.755Z,14.83
2022-10-11T23:23:36.348Z,16.25
2022-10-11T23:26:07.691Z,16.02
2022-10-11T23:28:36.719Z,15.10
2022-10-11T23:31:11.229Z,16.57
2022-10-11T23:33:39.853Z,15.48
2022-10-11T23:36:20.274Z,15.40
2022-10-11T23:38:54.517Z,15.40
2022-10-11T23:41:24.695Z,13.08
2022-10-11T23:43:53.573Z,14.00
2022-10-11T23:46:22.491Z,98.40
2022-10-11T23:48:51.110Z,18.70
2022-10-11T23:51:19.666Z,14.55
2022-10-11T23:53:48.252Z,13.30
2022-10-11T23:56:16.843Z,14.98
2022-10-11T23:58:45.387Z,11.70
